Time;durP1;ratioP1;P1;durP2;ratioP2;P2;SDS_P1;SDS_P2;PMS_P1;PMS_P2;Temp;Humidity;BMP_temperature;BMP_pressure;BME280_temperature;BME280_humidity;BME280_pressure;Samples;Min_cycle;Max_cycle;Signal;HPM_P1;HPM_P2
2023/06/25 00:34:48;;;;;;;6.20;5.10;;;;;;;15.91;78.74;100477.55;131269;1253;107421;-83
2023/06/25 00:38:00;;;;;;;6.90;5.90;;;;;;;15.84;78.73;100468.95;131331;1251;107524;-85
2023/06/25 00:41:09;;;;;;;7.30;6.60;;;;;;;15.83;79.13;100470.88;131394;1253;107491;-84
2023/06/25 00:44:14;;;;;;;9.60;6.60;;;;;;;15.84;78.99;100468.98;131200;1253;107496;-83
2023/06/25 00:47:22;;;;;;;8.40;7.00;;;;;;;15.83;79.02;100466.05;131162;1257;106038;-84
2023/06/25 00:50:28;;;;;;;7.80;6.90;;;;;;;15.83;79.06;100468.94;131173;1253;107382;-84
2023/06/25 00:53:35;;;;;;;7.20;5.30;;;;;;;15.81;79.16;100472.41;131076;1251;107446;-84
2023/06/25 00:56:41;;;;;;;6.30;5.60;;;;;;;15.81;79.27;100467.34;131236;1251;107507;-84
2023/06/25 00:59:48;;;;;;;6.80;6.00;;;;;;;15.83;79.21;100466.21;131134;1253;107374;-85
2023/06/25 01:03:02;;;;;;;7.70;6.40;;;;;;;15.83;79.20;100463.52;131226;1253;106208;-84
2023/06/25 01:06:15;;;;;;;8.70;7.00;;;;;;;15.84;79.34;100464.73;131167;1253;106766;-84
2023/06/25 01:09:23;;;;;;;8.40;7.20;;;;;;;15.83;79.38;100466.25;131158;1252;108894;-83
2023/06/25 01:12:29;;;;;;;8.90;6.80;;;;;;;15.83;79.60;100462.80;131204;1253;107501;-84
2023/06/25 01:15:35;;;;;;;9.30;6.80;;;;;;;15.83;79.60;100462.77;131161;1253;106706;-84
2023/06/25 01:18:41;;;;;;;7.50;5.70;;;;;;;15.84;79.81;100460.74;131141;1253;107490;-84
2023/06/25 01:21:48;;;;;;;8.90;6.40;;;;;;;15.85;79.70;100459.57;131131;1253;108682;-84
2023/06/25 01:24:56;;;;;;;8.20;6.30;;;;;;;15.88;79.86;100459.05;131178;1253;108890;-84
2023/06/25 01:28:02;;;;;;;9.00;7.50;;;;;;;15.92;79.86;100456.41;131170;1256;107544;-83
2023/06/25 01:31:08;;;;;;;12.10;9.20;;;;;;;15.94;80.50;100461.17;131175;1253;107521;-84
2023/06/25 01:34:14;;;;;;;10.90;9.10;;;;;;;15.94;81.11;100460.83;131263;1253;107422;-83
2023/06/25 01:37:19;;;;;;;9.50;8.00;;;;;;;15.89;81.31;100457.41;131281;1265;107197;-84
2023/06/25 01:40:25;;;;;;;11.30;8.50;;;;;;;15.84;81.55;100451.61;131371;1251;107460;-84
2023/06/25 01:43:31;;;;;;;12.00;9.30;;;;;;;15.85;82.22;100453.65;131490;1253;107451;-84
2023/06/25 01:46:36;;;;;;;12.90;9.80;;;;;;;15.86;83.40;100460.50;131158;1253;107519;-84
2023/06/25 01:49:42;;;;;;;11.60;9.80;;;;;;;15.85;82.54;100461.33;131185;1256;107501;-84
2023/06/25 01:52:47;;;;;;;14.20;9.70;;;;;;;15.88;82.71;100462.90;131249;1253;107244;-84
2023/06/25 01:55:53;;;;;;;13.10;9.60;;;;;;;15.89;83.64;100468.00;131132;1266;107375;-83
2023/06/25 01:58:58;;;;;;;10.60;9.00;;;;;;;15.89;83.58;100473.38;131124;1256;107443;-84
2023/06/25 02:02:06;;;;;;;13.30;10.10;;;;;;;15.93;83.44;100467.05;131332;1251;107544;-85
2023/06/25 02:05:12;;;;;;;14.60;10.50;;;;;;;15.97;83.50;100467.98;131119;1253;107606;-82
2023/06/25 02:08:18;;;;;;;13.80;10.50;;;;;;;15.98;83.67;100465.94;131042;1256;107594;-83
2023/06/25 02:11:25;;;;;;;13.80;11.00;;;;;;;16.00;84.03;100464.56;131131;1253;107450;-84
2023/06/25 02:14:31;;;;;;;12.10;9.40;;;;;;;15.94;84.77;100457.60;131226;1253;107548;-83
2023/06/25 02:17:36;;;;;;;11.60;9.40;;;;;;;15.97;83.88;100458.23;131269;1251;107506;-83
2023/06/25 02:20:42;;;;;;;12.50;10.70;;;;;;;16.05;84.61;100457.33;131072;1253;107488;-83
2023/06/25 02:23:47;;;;;;;16.40;11.90;;;;;;;16.07;84.56;100457.73;131086;1253;107432;-83
2023/06/25 02:26:53;;;;;;;13.90;10.90;;;;;;;16.08;84.49;100457.90;131188;1253;107521;-83
2023/06/25 02:29:58;;;;;;;13.20;9.80;;;;;;;16.09;84.14;100455.72;131149;1253;107501;-83
2023/06/25 02:33:04;;;;;;;12.40;10.80;;;;;;;16.10;84.45;100453.14;131093;1251;107423;-83
2023/06/25 02:36:10;;;;;;;14.40;10.30;;;;;;;16.05;84.58;100455.01;131081;1253;107521;-84
2023/06/25 02:39:15;;;;;;;10.70;9.60;;;;;;;16.07;84.50;100452.73;131201;1250;108742;-83
2023/06/25 02:42:21;;;;;;;11.90;10.40;;;;;;;16.15;84.18;100454.15;131302;1255;107531;-83
2023/06/25 02:45:27;;;;;;;12.10;10.30;;;;;;;16.19;83.96;100457.27;131237;1249;107338;-83
2023/06/25 02:48:32;;;;;;;13.60;10.00;;;;;;;16.21;83.98;100462.27;131212;1256;106754;-84
2023/06/25 02:51:40;;;;;;;13.20;10.60;;;;;;;16.22;84.11;100462.42;131118;1251;107503;-84
2023/06/25 02:54:45;;;;;;;12.30;10.10;;;;;;;16.21;84.40;100462.98;131205;1253;107295;-84
2023/06/25 02:57:51;;;;;;;14.30;10.80;;;;;;;16.26;84.43;100464.91;131184;1257;107531;-84
2023/06/25 03:00:58;;;;;;;13.70;11.00;;;;;;;16.35;84.67;100465.91;131357;1255;107553;-83
2023/06/25 03:04:04;;;;;;;13.30;11.10;;;;;;;16.35;84.71;100462.02;131131;1255;105655;-83
2023/06/25 03:07:10;;;;;;;14.70;10.10;;;;;;;16.33;84.71;100461.73;131063;1251;108584;-84
2023/06/25 03:10:16;;;;;;;14.80;10.10;;;;;;;16.32;84.76;100465.45;131229;1266;107549;-83
2023/06/25 03:13:21;;;;;;;12.20;9.60;;;;;;;16.37;84.69;100463.41;131103;1253;108676;-83
2023/06/25 03:16:27;;;;;;;11.70;10.30;;;;;;;16.50;84.76;100461.23;131025;1253;107359;-83
2023/06/25 03:19:34;;;;;;;11.00;9.80;;;;;;;16.63;84.49;100461.61;131198;1253;107486;-83
2023/06/25 03:22:40;;;;;;;11.30;9.70;;;;;;;16.80;84.60;100458.63;131168;1253;105809;-83
2023/06/25 03:25:46;;;;;;;13.10;9.20;;;;;;;16.98;84.40;100461.92;131113;1253;107532;-82
2023/06/25 03:28:58;;;;;;;10.40;8.20;;;;;;;17.18;84.45;100465.70;131198;1253;107429;-82
2023/06/25 03:32:05;;;;;;;10.50;8.60;;;;;;;17.53;84.38;100463.68;131216;1250;108656;-82
2023/06/25 03:35:12;;;;;;;10.10;9.00;;;;;;;17.86;83.98;100460.92;131241;1253;106500;-83
2023/06/25 03:38:18;;;;;;;10.30;8.60;;;;;;;18.16;83.67;100453.13;131133;1256;107439;-82
2023/06/25 03:41:24;;;;;;;10.20;8.50;;;;;;;18.44;83.21;100458.15;131372;1253;108353;-82
2023/06/25 03:44:31;;;;;;;9.40;8.00;;;;;;;18.69;83.01;100458.31;131251;1264;107544;-82
2023/06/25 03:47:36;;;;;;;8.50;7.70;;;;;;;18.86;82.65;100458.73;131210;1266;107162;-82
2023/06/25 03:50:42;;;;;;;9.50;8.10;;;;;;;19.05;82.66;100458.38;131202;1255;107499;-82
2023/06/25 03:53:47;;;;;;;10.00;8.30;;;;;;;19.27;82.15;100454.20;131152;1253;106683;-82
2023/06/25 03:56:53;;;;;;;11.50;9.10;;;;;;;19.42;81.00;100448.93;131116;1256;106469;-82
2023/06/25 03:59:58;;;;;;;10.40;8.70;;;;;;;19.42;79.91;100454.73;131086;1253;107506;-82
2023/06/25 04:03:04;;;;;;;10.20;8.50;;;;;;;19.38;79.62;100455.75;131010;1250;107575;-82
2023/06/25 04:06:10;;;;;;;10.30;8.60;;;;;;;19.24;79.22;100454.40;131042;1257;107641;-83
2023/06/25 04:09:15;;;;;;;8.90;7.50;;;;;;;19.07;79.89;100453.16;131052;1256;107682;-83
2023/06/25 04:12:21;;;;;;;11.90;8.10;;;;;;;18.95;79.59;100453.90;131123;1251;107626;-83
2023/06/25 04:15:27;;;;;;;9.80;8.00;;;;;;;18.84;79.89;100462.93;131083;1250;107617;-84
2023/06/25 04:18:34;;;;;;;11.90;9.00;;;;;;;18.71;79.87;100468.71;131050;1264;107419;-83
2023/06/25 04:21:40;;;;;;;9.90;8.10;;;;;;;18.56;79.97;100472.48;131044;1255;106586;-82
2023/06/25 04:24:45;;;;;;;9.10;8.10;;;;;;;18.44;80.02;100469.16;131078;1250;107530;-83
2023/06/25 04:27:51;;;;;;;10.90;7.90;;;;;;;18.38;80.24;100467.59;131148;1264;107532;-82
2023/06/25 04:30:58;;;;;;;9.10;8.10;;;;;;;18.39;80.44;100464.95;131018;1264;107527;-83
2023/06/25 04:34:07;;;;;;;10.60;8.20;;;;;;;18.56;80.17;100465.44;131060;1251;107316;-82
2023/06/25 04:37:15;;;;;;;13.10;8.40;;;;;;;18.72;80.20;100464.31;131193;1255;107596;-83
2023/06/25 04:40:21;;;;;;;9.90;8.60;;;;;;;18.97;79.85;100460.60;131269;1257;107512;-82
2023/06/25 04:43:27;;;;;;;8.60;7.60;;;;;;;19.16;79.10;100457.09;131373;1256;107398;-83
2023/06/25 04:46:34;;;;;;;11.50;7.60;;;;;;;19.33;78.36;100457.61;131307;1256;106720;-84
2023/06/25 04:49:39;;;;;;;11.10;8.00;;;;;;;19.45;77.56;100460.80;131178;1257;107544;-84
2023/06/25 04:52:45;;;;;;;9.40;8.00;;;;;;;19.57;76.87;100464.52;130962;1251;107395;-85
2023/06/25 04:55:50;;;;;;;7.80;7.00;;;;;;;19.72;76.88;100467.61;131144;1255;107495;-85
2023/06/25 04:58:56;;;;;;;11.30;7.40;;;;;;;19.90;75.22;100469.34;131156;1256;107479;-82
2023/06/25 05:02:01;;;;;;;7.50;6.70;;;;;;;20.07;75.94;100471.90;131105;1257;107005;-82
2023/06/25 05:05:08;;;;;;;9.10;6.60;;;;;;;20.14;72.60;100470.14;131142;1255;107397;-82
2023/06/25 05:08:13;;;;;;;8.80;6.90;;;;;;;20.23;74.38;100465.20;131228;1253;107501;-83
2023/06/25 05:11:19;;;;;;;8.20;6.60;;;;;;;20.42;74.17;100460.29;131277;1253;107362;-83
2023/06/25 05:14:25;;;;;;;7.00;6.30;;;;;;;20.61;74.26;100464.55;131431;1251;107407;-83
2023/06/25 05:17:30;;;;;;;7.70;6.50;;;;;;;20.79;73.92;100465.40;131144;1263;107611;-83
2023/06/25 05:20:36;;;;;;;6.90;6.00;;;;;;;20.84;72.35;100469.36;131280;1253;107424;-84
2023/06/25 05:23:57;;;;;;;8.90;6.40;;;;;;;20.86;71.02;100467.88;131129;1251;107306;-86
2023/06/25 05:27:02;;;;;;;9.00;6.50;;;;;;;20.78;71.05;100472.75;131331;1251;107515;-85
2023/06/25 05:30:09;;;;;;;8.00;7.20;;;;;;;20.76;71.38;100477.50;131432;1256;106655;-87
2023/06/25 05:33:15;;;;;;;9.10;6.90;;;;;;;20.72;70.82;100467.67;131505;1262;107511;-85
2023/06/25 05:36:21;;;;;;;7.80;7.00;;;;;;;20.66;70.44;100466.33;131318;1253;107590;-85
2023/06/25 05:39:28;;;;;;;8.30;7.20;;;;;;;20.52;70.70;100469.31;131310;1257;107270;-86
2023/06/25 05:42:34;;;;;;;9.20;7.30;;;;;;;20.46;71.74;100469.16;131361;1253;108647;-87
2023/06/25 05:45:42;;;;;;;10.20;7.20;;;;;;;20.45;71.63;100467.20;131403;1253;108364;-85
2023/06/25 05:48:48;;;;;;;7.80;6.90;;;;;;;20.45;71.86;100473.24;131261;1251;107267;-85
2023/06/25 05:51:53;;;;;;;8.20;7.40;;;;;;;20.43;71.27;100477.21;131203;1251;108131;-81
2023/06/25 05:54:59;;;;;;;8.80;7.40;;;;;;;20.38;71.53;100484.65;131127;1251;106672;-75
2023/06/25 05:58:05;;;;;;;9.60;7.40;;;;;;;20.24;71.76;100485.52;131075;1253;107609;-75
2023/06/25 06:01:11;;;;;;;7.80;6.70;;;;;;;20.14;72.36;100483.48;131016;1261;107268;-75
2023/06/25 06:04:16;;;;;;;8.70;7.00;;;;;;;20.06;72.51;100482.58;131005;1253;107593;-74
2023/06/25 06:07:22;;;;;;;7.40;6.70;;;;;;;19.82;71.63;100484.00;131036;1254;107536;-76
2023/06/25 06:10:27;;;;;;;7.50;6.20;;;;;;;19.58;71.90;100482.67;130939;1254;107528;-75
2023/06/25 06:13:33;;;;;;;7.20;6.20;;;;;;;19.50;71.62;100481.63;131046;1253;107498;-74
2023/06/25 06:16:38;;;;;;;7.50;6.30;;;;;;;19.51;72.22;100482.50;130995;1253;107523;-75
2023/06/25 06:19:44;;;;;;;8.70;6.60;;;;;;;19.50;71.98;100483.16;131063;1253;107537;-75
2023/06/25 06:22:49;;;;;;;7.40;6.70;;;;;;;19.45;72.64;100480.91;131206;1261;107521;-74
2023/06/25 06:25:55;;;;;;;8.50;7.10;;;;;;;19.51;72.53;100476.25;131103;1253;107512;-75
2023/06/25 06:29:03;;;;;;;9.20;7.00;;;;;;;19.56;72.50;100477.46;131127;1257;108380;-76
2023/06/25 06:32:10;;;;;;;8.70;6.60;;;;;;;19.57;72.09;100475.17;131072;1251;108686;-75
2023/06/25 06:35:16;;;;;;;8.10;6.80;;;;;;;19.58;72.46;100475.84;131034;1253;107532;-76
2023/06/25 06:38:21;;;;;;;7.40;6.60;;;;;;;19.60;71.90;100476.22;131000;1261;107498;-76
2023/06/25 06:41:27;;;;;;;8.60;6.20;;;;;;;19.64;71.91;100474.13;130990;1253;106287;-76
2023/06/25 06:44:33;;;;;;;7.40;5.90;;;;;;;19.75;71.97;100476.62;131189;1264;107498;-76
2023/06/25 06:47:38;;;;;;;7.10;5.90;;;;;;;19.95;72.12;100473.50;131238;1263;106991;-76
2023/06/25 06:50:44;;;;;;;9.00;5.70;;;;;;;20.14;71.45;100474.23;131313;1254;107255;-76
2023/06/25 06:53:50;;;;;;;7.30;5.80;;;;;;;20.26;71.33;100471.00;131152;1263;107619;-76
2023/06/25 06:56:55;;;;;;;7.60;6.10;;;;;;;20.36;71.14;100469.70;131071;1263;107486;-76
2023/06/25 07:00:01;;;;;;;6.70;6.00;;;;;;;20.50;70.95;100472.44;131244;1262;107556;-76
2023/06/25 07:03:07;;;;;;;7.00;6.30;;;;;;;20.61;71.13;100471.05;131473;1258;108558;-76
2023/06/25 07:06:13;;;;;;;7.20;6.30;;;;;;;20.63;70.41;100470.81;131273;1254;110810;-76
2023/06/25 07:09:25;;;;;;;8.50;6.60;;;;;;;20.69;70.77;100472.21;131225;1254;108285;-75
2023/06/25 07:12:30;;;;;;;8.20;6.40;;;;;;;20.79;70.38;100470.08;131360;1263;107357;-76
2023/06/25 07:15:37;;;;;;;7.30;5.90;;;;;;;20.91;69.85;100474.75;131083;1251;107480;-76
2023/06/25 07:18:43;;;;;;;9.40;5.50;;;;;;;20.95;69.32;100470.39;131360;1251;107475;-76
2023/06/25 07:21:49;;;;;;;7.50;6.20;;;;;;;20.99;69.96;100467.77;131209;1253;107431;-77
2023/06/25 07:24:54;;;;;;;7.60;5.90;;;;;;;21.06;69.56;100471.61;131198;1254;107512;-76
2023/06/25 07:28:00;;;;;;;7.10;6.10;;;;;;;21.20;68.10;100467.23;131042;1263;107518;-78
2023/06/25 07:31:06;;;;;;;7.10;6.40;;;;;;;21.26;67.33;100465.03;131020;1255;107592;-76
2023/06/25 07:34:11;;;;;;;7.20;6.20;;;;;;;21.35;68.24;100462.25;131275;1258;107438;-77
2023/06/25 07:37:17;;;;;;;7.70;5.90;;;;;;;21.47;68.13;100461.57;131229;1254;107357;-76
2023/06/25 07:40:23;;;;;;;6.60;5.40;;;;;;;21.60;67.09;100461.11;131110;1263;107624;-77
2023/06/25 07:43:28;;;;;;;6.30;5.50;;;;;;;21.58;65.18;100459.86;131056;1254;106086;-75
2023/06/25 07:46:34;;;;;;;9.20;6.00;;;;;;;21.56;65.38;100461.20;131013;1255;108641;-79
2023/06/25 07:49:39;;;;;;;5.90;5.20;;;;;;;21.57;65.37;100463.64;131039;1261;107672;-76
2023/06/25 07:52:45;;;;;;;5.90;5.10;;;;;;;21.62;63.59;100467.77;131007;1261;107587;-76
2023/06/25 07:55:50;;;;;;;7.10;5.40;;;;;;;21.60;63.37;100470.67;130998;1254;107500;-78
2023/06/25 07:58:56;;;;;;;6.70;5.80;;;;;;;21.56;64.38;100468.86;131072;1253;107546;-76
2023/06/25 08:02:02;;;;;;;6.00;5.30;;;;;;;21.47;63.78;100464.33;131064;1262;107518;-78
2023/06/25 08:05:09;;;;;;;6.10;5.50;;;;;;;21.44;64.72;100463.02;131059;1263;107476;-76
2023/06/25 08:08:15;;;;;;;6.30;5.70;;;;;;;21.41;64.73;100457.54;131241;1253;106451;-77
2023/06/25 08:11:20;;;;;;;7.80;6.00;;;;;;;21.55;64.60;100454.90;130992;1257;107243;-76
2023/06/25 08:14:26;;;;;;;7.00;6.10;;;;;;;21.85;64.36;100454.92;131115;1259;107258;-77
2023/06/25 08:17:31;;;;;;;7.20;5.90;;;;;;;22.18;64.10;100450.15;131222;1264;107506;-77
2023/06/25 08:20:37;;;;;;;6.20;5.50;;;;;;;22.50;63.23;100452.45;130953;1257;107242;-77
2023/06/25 08:23:43;;;;;;;6.80;5.90;;;;;;;22.73;62.02;100444.02;131052;1256;107332;-77
2023/06/25 08:26:48;;;;;;;6.50;5.60;;;;;;;22.91;62.62;100443.20;130930;1264;106547;-77
2023/06/25 08:29:54;;;;;;;7.80;6.00;;;;;;;23.06;62.09;100442.80;131145;1251;106365;-77
2023/06/25 08:33:00;;;;;;;6.50;5.70;;;;;;;23.04;61.14;100440.31;131489;1253;107467;-77
2023/06/25 08:36:06;;;;;;;5.90;5.20;;;;;;;23.12;60.60;100437.23;131289;1254;108619;-77
2023/06/25 08:39:11;;;;;;;7.20;5.70;;;;;;;23.13;61.18;100432.33;131166;1254;107363;-77
2023/06/25 08:42:17;;;;;;;6.70;6.00;;;;;;;23.27;62.54;100431.99;131153;1254;108678;-77
2023/06/25 08:45:22;;;;;;;8.00;5.60;;;;;;;23.36;60.17;100436.30;131168;1257;107362;-77
2023/06/25 08:48:30;;;;;;;6.30;5.70;;;;;;;23.31;59.84;100432.05;131065;1257;107341;-77
2023/06/25 08:51:38;;;;;;;6.80;5.40;;;;;;;23.21;58.52;100435.11;131082;1254;107439;-75
2023/06/25 08:54:46;;;;;;;5.90;5.40;;;;;;;23.13;59.98;100436.38;131120;1251;108635;-76
2023/06/25 08:57:51;;;;;;;6.20;5.00;;;;;;;23.16;61.31;100436.23;131206;1254;107695;-77
2023/06/25 09:00:57;;;;;;;6.00;5.10;;;;;;;23.20;60.01;100435.70;131420;1254;107440;-77
2023/06/25 09:04:03;;;;;;;6.10;4.90;;;;;;;23.18;59.46;100443.56;131122;1251;107570;-77
2023/06/25 09:07:12;;;;;;;6.10;4.90;;;;;;;23.21;57.48;100438.32;131023;1253;106402;-79
2023/06/25 09:10:19;;;;;;;7.50;4.80;;;;;;;23.08;57.45;100439.73;131030;1262;107562;-76
2023/06/25 09:13:26;;;;;;;5.10;4.40;;;;;;;22.90;56.86;100442.33;131090;1253;107226;-77
2023/06/25 09:16:32;;;;;;;6.00;4.50;;;;;;;22.81;56.94;100439.39;131018;1254;107446;-76
2023/06/25 09:19:43;;;;;;;5.10;4.60;;;;;;;22.76;56.36;100440.45;131049;1263;107360;-77
2023/06/25 09:22:58;;;;;;;6.40;4.60;;;;;;;22.81;57.66;100432.16;131165;1254;107397;-81
2023/06/25 09:26:09;;;;;;;5.50;4.70;;;;;;;22.90;56.48;100434.84;131358;1254;107458;-82
2023/06/25 09:29:15;;;;;;;5.40;4.60;;;;;;;22.90;56.41;100431.98;131347;1263;106452;-83
2023/06/25 09:32:21;;;;;;;5.60;4.30;;;;;;;22.96;57.19;100428.35;131343;1254;107374;-82
2023/06/25 09:35:29;;;;;;;6.90;4.90;;;;;;;23.03;57.01;100423.84;131142;1254;107484;-82
2023/06/25 09:38:35;;;;;;;5.70;4.90;;;;;;;23.05;55.17;100427.55;131199;1254;107493;-82
2023/06/25 09:41:42;;;;;;;6.20;4.70;;;;;;;23.03;55.93;100431.46;131094;1254;107150;-82
2023/06/25 09:44:50;;;;;;;6.00;4.50;;;;;;;23.08;55.56;100425.41;131131;1261;107601;-82
2023/06/25 09:47:59;;;;;;;7.00;4.80;;;;;;;23.14;56.36;100419.30;131193;1263;106840;-81
2023/06/25 09:51:08;;;;;;;7.10;5.00;;;;;;;23.24;55.14;100421.77;131433;1251;107548;-81
2023/06/25 09:54:16;;;;;;;5.60;4.70;;;;;;;23.22;54.68;100419.84;131335;1253;107598;-82
2023/06/25 09:57:28;;;;;;;5.70;5.10;;;;;;;23.19;53.82;100418.63;131125;1251;107504;-81
2023/06/25 10:00:35;;;;;;;6.20;5.10;;;;;;;23.28;55.59;100412.96;131222;1253;107962;-80
2023/06/25 10:03:42;;;;;;;5.80;5.10;;;;;;;23.35;54.28;100416.02;131416;1255;107426;-81
2023/06/25 10:06:48;;;;;;;6.20;5.20;;;;;;;23.39;54.51;100412.86;131352;1254;107212;-82
2023/06/25 10:09:57;;;;;;;5.90;5.20;;;;;;;23.50;55.62;100405.52;131271;1254;106404;-81
2023/06/25 10:13:07;;;;;;;6.10;4.70;;;;;;;23.70;55.30;100400.59;131459;1250;107507;-84
2023/06/25 10:16:19;;;;;;;5.50;4.80;;;;;;;23.87;55.52;100398.52;131281;1251;107522;-81
2023/06/25 10:19:27;;;;;;;6.40;5.10;;;;;;;23.95;53.99;100398.86;131338;1253;107486;-83
2023/06/25 10:22:38;;;;;;;8.70;5.80;;;;;;;23.91;53.68;100395.17;131172;1250;107533;-81
2023/06/25 10:25:54;;;;;;;6.20;5.00;;;;;;;23.98;55.37;100388.83;131212;1251;107251;-80
2023/06/25 10:29:06;;;;;;;5.60;4.80;;;;;;;24.19;55.31;100385.48;131298;1253;107286;-82
2023/06/25 10:32:13;;;;;;;6.00;5.00;;;;;;;24.23;53.92;100385.36;131167;1262;106528;-81
2023/06/25 10:35:20;;;;;;;5.40;4.90;;;;;;;24.10;52.64;100394.01;131262;1254;107323;-82
2023/06/25 10:38:26;;;;;;;5.90;4.90;;;;;;;23.93;54.21;100386.36;131229;1254;107433;-81
2023/06/25 10:41:33;;;;;;;6.60;5.10;;;;;;;23.85;54.14;100378.21;131283;1253;107553;-80
2023/06/25 10:44:40;;;;;;;5.70;5.10;;;;;;;23.93;54.24;100376.02;131325;1263;107357;-77
2023/06/25 10:47:45;;;;;;;6.10;4.90;;;;;;;24.20;54.55;100376.76;131302;1254;107520;-77
2023/06/25 10:50:52;;;;;;;7.00;4.90;;;;;;;24.39;52.47;100380.86;131194;1253;107856;-78
2023/06/25 10:53:58;;;;;;;8.10;4.90;;;;;;;24.67;53.06;100372.27;131347;1254;107564;-77
2023/06/25 10:57:11;;;;;;;5.70;5.10;;;;;;;24.90;50.45;100376.98;131080;1254;107290;-77
2023/06/25 11:00:17;;;;;;;5.30;4.80;;;;;;;25.00;51.79;100376.98;131127;1252;107426;-77
2023/06/25 11:03:23;;;;;;;5.90;5.30;;;;;;;25.01;51.18;100381.20;130995;1254;107515;-77
2023/06/25 11:06:40;;;;;;;6.10;5.10;;;;;;;24.88;51.31;100377.10;131076;1254;107469;-77
2023/06/25 11:09:50;;;;;;;6.50;5.00;;;;;;;24.82;50.89;100376.27;131318;1255;107574;-77
2023/06/25 11:12:56;;;;;;;6.20;5.30;;;;;;;24.69;51.29;100369.92;131491;1253;107213;-77
2023/06/25 11:16:02;;;;;;;5.10;4.60;;;;;;;24.75;51.58;100370.80;131294;1253;107509;-76
2023/06/25 11:19:09;;;;;;;5.50;4.90;;;;;;;25.00;50.90;100362.73;131071;1254;107690;-76
2023/06/25 11:22:15;;;;;;;6.40;4.60;;;;;;;25.13;48.33;100366.18;131058;1253;107548;-76
2023/06/25 11:25:21;;;;;;;5.40;4.70;;;;;;;24.99;48.87;100361.42;131312;1263;107383;-76
2023/06/25 11:28:27;;;;;;;5.10;4.60;;;;;;;24.93;49.19;100361.69;131360;1254;107650;-78
2023/06/25 11:31:43;;;;;;;4.80;4.40;;;;;;;25.04;50.64;100359.15;131314;1263;107567;-77
2023/06/25 11:34:48;;;;;;;5.80;4.60;;;;;;;25.22;48.47;100354.67;131240;1254;107533;-77
2023/06/25 11:37:54;;;;;;;4.90;4.30;;;;;;;25.36;50.05;100352.49;131089;1250;107935;-77
2023/06/25 11:40:59;;;;;;;5.30;4.40;;;;;;;25.58;49.84;100349.08;131300;1254;107423;-77
2023/06/25 11:44:15;;;;;;;5.70;4.40;;;;;;;25.72;47.84;100346.98;131138;1253;105799;-77
2023/06/25 11:47:21;;;;;;;4.50;4.10;;;;;;;25.71;49.48;100340.24;131043;1254;107341;-77
2023/06/25 11:50:27;;;;;;;4.70;4.20;;;;;;;25.73;49.24;100343.00;131032;1254;106666;-77
2023/06/25 11:53:33;;;;;;;6.00;4.50;;;;;;;25.70;48.37;100341.65;131000;1256;107386;-77
2023/06/25 11:56:39;;;;;;;5.60;4.40;;;;;;;25.66;46.71;100339.18;130953;1254;107518;-77
2023/06/25 11:59:45;;;;;;;6.50;4.50;;;;;;;25.61;47.37;100333.55;131027;1251;107361;-77
2023/06/25 12:02:50;;;;;;;4.90;4.30;;;;;;;25.56;46.11;100335.10;130979;1251;107277;-77
2023/06/25 12:05:56;;;;;;;5.60;3.90;;;;;;;25.53;46.59;100329.58;131039;1254;106601;-78
2023/06/25 12:09:03;;;;;;;4.50;4.10;;;;;;;25.61;46.35;100324.20;131333;1251;106724;-77
2023/06/25 12:12:09;;;;;;;5.80;4.60;;;;;;;25.68;45.55;100316.47;131200;1251;108615;-77
2023/06/25 12:15:15;;;;;;;5.00;4.00;;;;;;;25.70;46.11;100312.61;131009;1257;107474;-77
2023/06/25 12:18:22;;;;;;;4.20;3.80;;;;;;;25.74;44.26;100316.57;131001;1257;107359;-77
2023/06/25 12:21:27;;;;;;;5.50;4.30;;;;;;;25.77;46.08;100305.94;131202;1253;107499;-77
2023/06/25 12:24:33;;;;;;;5.20;4.30;;;;;;;25.74;45.44;100301.47;131156;1250;107317;-78
2023/06/25 12:27:40;;;;;;;5.60;3.70;;;;;;;25.42;44.09;100303.09;131270;1254;107484;-77
2023/06/25 12:30:45;;;;;;;4.30;3.80;;;;;;;25.15;42.61;100296.91;131088;1254;107437;-77
2023/06/25 12:33:51;;;;;;;3.90;3.50;;;;;;;25.06;44.56;100299.06;131141;1254;107423;-78
2023/06/25 12:36:57;;;;;;;3.70;3.30;;;;;;;25.11;43.93;100294.83;131146;1253;107543;-77
2023/06/25 12:40:03;;;;;;;6.30;3.40;;;;;;;25.12;42.99;100289.83;131037;1253;107373;-78
2023/06/25 12:43:09;;;;;;;4.20;3.50;;;;;;;25.09;43.11;100290.16;131020;1253;107503;-76
2023/06/25 12:46:14;;;;;;;4.50;3.70;;;;;;;25.16;44.04;100280.82;131215;1254;107611;-76
2023/06/25 12:49:20;;;;;;;4.60;3.40;;;;;;;25.24;43.34;100283.42;131041;1254;107562;-76
2023/06/25 12:52:27;;;;;;;3.50;3.10;;;;;;;25.22;41.78;100278.26;131287;1254;107459;-76
2023/06/25 12:55:32;;;;;;;3.50;3.20;;;;;;;25.20;42.67;100273.67;131255;1251;107320;-77
2023/06/25 12:58:38;;;;;;;3.40;3.10;;;;;;;25.23;41.57;100266.59;131343;1255;107368;-77
2023/06/25 13:01:44;;;;;;;3.40;3.10;;;;;;;25.18;40.84;100267.75;131354;1253;106697;-77
2023/06/25 13:04:50;;;;;;;3.90;3.10;;;;;;;25.20;40.61;100273.79;131119;1250;107535;-77
2023/06/25 13:07:55;;;;;;;3.10;2.80;;;;;;;25.19;40.96;100272.06;131092;1251;108130;-80
2023/06/25 13:11:02;;;;;;;4.70;3.70;;;;;;;25.22;41.25;100271.88;131278;1254;108692;-75
2023/06/25 13:14:07;;;;;;;3.30;3.00;;;;;;;25.25;41.35;100269.19;131353;1251;107391;-75
2023/06/25 13:17:13;;;;;;;4.10;3.10;;;;;;;25.27;39.82;100265.66;131167;1253;107509;-75
2023/06/25 13:20:19;;;;;;;3.90;2.90;;;;;;;25.22;39.48;100264.34;131079;1253;107485;-81
2023/06/25 13:23:24;;;;;;;4.20;3.20;;;;;;;25.22;40.70;100259.63;131276;1251;107237;-83
2023/06/25 13:26:30;;;;;;;3.40;2.90;;;;;;;25.24;40.43;100256.13;131239;1251;106058;-84
2023/06/25 13:29:35;;;;;;;3.00;2.60;;;;;;;25.24;39.82;100258.69;131238;1251;107360;-79
2023/06/25 13:32:42;;;;;;;4.40;2.70;;;;;;;25.24;37.91;100257.92;131091;1253;105709;-78
2023/06/25 13:35:48;;;;;;;2.90;2.40;;;;;;;25.19;37.20;100258.25;131016;1254;107871;-77
2023/06/25 13:38:53;;;;;;;4.30;2.60;;;;;;;25.16;39.32;100249.52;131197;1253;107530;-78
2023/06/25 13:41:59;;;;;;;2.90;2.50;;;;;;;25.15;36.23;100254.33;131109;1254;107589;-77
2023/06/25 13:45:05;;;;;;;3.20;2.60;;;;;;;25.17;37.98;100248.45;131118;1253;107441;-79
2023/06/25 13:48:11;;;;;;;3.30;2.50;;;;;;;25.17;37.04;100244.13;131098;1253;107572;-77
2023/06/25 13:51:17;;;;;;;3.60;2.40;;;;;;;25.13;35.24;100244.91;131042;1251;106737;-76
2023/06/25 13:54:24;;;;;;;2.90;2.40;;;;;;;25.15;36.52;100241.80;131317;1251;107773;-80
2023/06/25 13:57:33;;;;;;;2.90;2.40;;;;;;;25.22;36.77;100232.75;131204;1253;107507;-78
2023/06/25 14:00:38;;;;;;;2.80;2.50;;;;;;;25.23;35.89;100231.27;131341;1253;107376;-79
2023/06/25 14:03:44;;;;;;;2.70;2.40;;;;;;;25.27;36.12;100231.05;131099;1253;107402;-79
2023/06/25 14:06:50;;;;;;;2.60;2.40;;;;;;;25.30;34.91;100230.54;131156;1251;143371;-79
2023/06/25 14:09:55;;;;;;;3.80;2.30;;;;;;;25.31;35.83;100223.80;131260;1253;107454;-78
2023/06/25 14:13:02;;;;;;;2.80;2.40;;;;;;;25.40;36.55;100224.67;131299;1250;107423;-79
2023/06/25 14:16:08;;;;;;;3.00;2.60;;;;;;;25.47;35.16;100229.02;131400;1253;107651;-79
2023/06/25 14:19:13;;;;;;;2.90;2.60;;;;;;;25.52;36.40;100223.63;131264;1253;107578;-78
2023/06/25 14:22:19;;;;;;;4.00;2.70;;;;;;;25.58;36.92;100228.23;131186;1263;106677;-79
2023/06/25 14:25:25;;;;;;;3.10;2.80;;;;;;;25.56;36.57;100226.95;131064;1254;107485;-78
2023/06/25 14:28:30;;;;;;;4.70;2.90;;;;;;;25.53;36.82;100221.95;131096;1253;107607;-79
2023/06/25 14:31:36;;;;;;;5.60;2.80;;;;;;;25.48;36.20;100217.83;131092;1251;107564;-79
2023/06/25 14:34:41;;;;;;;3.60;3.20;;;;;;;25.41;36.45;100213.92;131050;1253;108487;-79
2023/06/25 14:37:48;;;;;;;3.30;2.80;;;;;;;25.37;36.43;100209.94;131015;1254;107505;-79